Time;durP1;ratioP1;P1;durP2;ratioP2;P2;SDS_P1;SDS_P2;PMS_P1;PMS_P2;Temp;Humidity;BMP_temperature;BMP_pressure;BME280_temperature;BME280_humidity;BME280_pressure;Samples;Min_cycle;Max_cycle;Signal;HPM_P1;HPM_P2
2021/12/19 00:00:02;;;;;;;;;32.33;30.00;;;;;;;;5117354;27;45544;-84
2021/12/19 00:03:32;;;;;;;;;39.00;32.00;;;;;;;;5098825;27;45315;-85
2021/12/19 00:10:45;;;;;;;;;32.75;28.75;;;;;;;;5117759;27;45434;-85
2021/12/19 00:13:12;;;;;;;;;36.25;33.75;;;;;;;;5098322;27;45464;-84
2021/12/19 00:15:37;;;;;;;;;34.25;30.50;;;;;;;;5117354;27;45568;-84
2021/12/19 00:18:02;;;;;;;;;30.00;29.33;;;;;;;;5116547;27;47763;-84
2021/12/19 00:20:28;;;;;;;;;36.00;30.00;;;;;;;;5098136;27;46215;-85
2021/12/19 00:22:53;;;;;;;;;40.67;34.67;;;;;;;;5098218;27;45364;-85
2021/12/19 00:25:18;;;;;;;;;32.00;26.00;;;;;;;;5098317;27;45370;-84
2021/12/19 00:27:43;;;;;;;;;30.67;28.00;;;;;;;;5098405;27;47322;-84
2021/12/19 00:30:09;;;;;;;;;36.00;29.00;;;;;;;;5116817;27;45515;-84
2021/12/19 00:32:34;;;;;;;;;39.75;32.50;;;;;;;;5116742;27;45749;-84
2021/12/19 00:34:59;;;;;;;;;34.00;25.00;;;;;;;;5098182;27;45607;-85
2021/12/19 00:37:24;;;;;;;;;34.33;29.00;;;;;;;;5097373;27;48057;-84
2021/12/19 00:39:50;;;;;;;;;33.75;29.00;;;;;;;;5116492;27;45365;-84
2021/12/19 00:42:34;;;;;;;;;35.67;30.00;;;;;;;;5116456;27;45424;-83
2021/12/19 00:45:02;;;;;;;;;32.75;30.25;;;;;;;;5116699;27;45388;-81
2021/12/19 00:47:27;;;;;;;;;35.25;30.25;;;;;;;;5097491;27;45570;-81
2021/12/19 00:49:53;;;;;;;;;39.75;35.25;;;;;;;;5115969;27;45468;-81
2021/12/19 00:52:18;;;;;;;;;36.50;32.25;;;;;;;;5115699;27;45677;-81
2021/12/19 00:54:43;;;;;;;;;38.00;33.00;;;;;;;;5116359;27;45407;-80
2021/12/19 00:57:08;;;;;;;;;34.00;31.33;;;;;;;;5116074;27;45315;-81
2021/12/19 00:59:34;;;;;;;;;36.33;31.33;;;;;;;;5097387;27;45530;-80
2021/12/19 01:01:59;;;;;;;;;34.75;31.75;;;;;;;;5097553;27;45314;-81
2021/12/19 01:04:25;;;;;;;;;31.67;26.33;;;;;;;;5116448;27;45603;-81
2021/12/19 01:06:50;;;;;;;;;32.75;27.75;;;;;;;;5115776;27;46389;-80
2021/12/19 01:09:16;;;;;;;;;35.67;30.67;;;;;;;;5115576;27;45333;-82
2021/12/19 01:11:42;;;;;;;;;32.25;29.25;;;;;;;;5116516;27;45620;-80
2021/12/19 01:14:07;;;;;;;;;34.75;31.50;;;;;;;;5115758;27;45424;-81
2021/12/19 01:16:33;;;;;;;;;37.50;31.50;;;;;;;;5115202;27;46807;-81
2021/12/19 01:18:58;;;;;;;;;33.25;30.50;;;;;;;;5116049;27;45508;-81
2021/12/19 01:21:23;;;;;;;;;38.25;32.50;;;;;;;;5097292;27;45706;-81
2021/12/19 01:23:49;;;;;;;;;36.67;26.67;;;;;;;;5096571;27;45548;-81
2021/12/19 01:26:14;;;;;;;;;32.00;25.33;;;;;;;;5096775;27;46331;-80
2021/12/19 01:28:40;;;;;;;;;37.25;31.25;;;;;;;;5096941;27;45345;-81
2021/12/19 01:31:06;;;;;;;;;31.50;29.50;;;;;;;;5097141;27;45450;-80
2021/12/19 01:33:31;;;;;;;;;30.75;28.50;;;;;;;;5097041;27;45437;-81
2021/12/19 01:35:57;;;;;;;;;34.00;28.00;;;;;;;;5115488;27;45396;-81
2021/12/19 01:38:22;;;;;;;;;36.50;29.25;;;;;;;;5096508;27;45568;-80
2021/12/19 01:40:47;;;;;;;;;33.75;28.75;;;;;;;;5096867;27;45419;-81
2021/12/19 01:43:12;;;;;;;;;34.00;29.33;;;;;;;;5115590;27;45640;-81
2021/12/19 01:45:39;;;;;;;;;40.33;31.33;;;;;;;;5115152;27;47622;-81
2021/12/19 01:48:06;;;;;;;;;32.75;28.25;;;;;;;;5115282;27;45785;-81
2021/12/19 01:50:33;;;;;;;;;39.25;31.25;;;;;;;;5095525;27;45558;-81
2021/12/19 01:52:58;;;;;;;;;34.00;28.25;;;;;;;;5114684;27;45302;-82
2021/12/19 01:55:24;;;;;;;;;33.50;29.50;;;;;;;;5096650;27;47089;-83
2021/12/19 01:57:49;;;;;;;;;30.67;27.00;;;;;;;;5096940;27;45360;-83
2021/12/19 02:00:20;;;;;;;;;34.50;32.25;;;;;;;;5097025;27;45400;-84
2021/12/19 02:02:45;;;;;;;;;28.50;25.50;;;;;;;;5096779;27;45476;-84
2021/12/19 02:05:10;;;;;;;;;31.67;23.67;;;;;;;;5115400;27;45485;-84
2021/12/19 02:07:36;;;;;;;;;34.67;31.00;;;;;;;;5114942;27;45588;-84
2021/12/19 02:10:03;;;;;;;;;33.33;28.00;;;;;;;;5115407;27;45486;-84
2021/12/19 02:12:28;;;;;;;;;33.75;31.00;;;;;;;;5096680;27;45681;-83
2021/12/19 02:14:53;;;;;;;;;33.33;28.00;;;;;;;;5096841;27;48004;-84
2021/12/19 02:17:18;;;;;;;;;30.00;27.67;;;;;;;;5115069;27;45368;-84
2021/12/19 02:19:44;;;;;;;;;26.33;25.33;;;;;;;;5096623;27;45440;-83
2021/12/19 02:22:09;;;;;;;;;31.00;22.75;;;;;;;;5096163;27;45488;-84
2021/12/19 02:24:34;;;;;;;;;28.00;23.00;;;;;;;;5096040;27;48085;-84
2021/12/19 02:27:00;;;;;;;;;23.75;20.00;;;;;;;;5096395;27;45527;-84
2021/12/19 02:29:25;;;;;;;;;22.75;22.50;;;;;;;;5096684;27;45274;-84
2021/12/19 02:31:53;;;;;;;;;24.75;20.75;;;;;;;;5096422;27;45661;-84
2021/12/19 02:34:23;;;;;;;;;25.00;21.25;;;;;;;;5096281;27;48381;-84
2021/12/19 02:36:57;;;;;;;;;23.75;22.00;;;;;;;;5096561;27;46119;-84
2021/12/19 02:50:14;;;;;;;;;24.75;23.00;;;;;;;;5114747;27;45337;-83
2021/12/19 02:52:39;;;;;;;;;25.75;22.00;;;;;;;;5095332;27;45632;-83
2021/12/19 02:55:05;;;;;;;;;23.00;21.67;;;;;;;;5095755;27;47008;-81
2021/12/19 02:57:30;;;;;;;;;24.25;18.75;;;;;;;;5095680;27;45626;-80
2021/12/19 02:59:55;;;;;;;;;22.75;19.00;;;;;;;;5114831;27;45705;-81
2021/12/19 03:02:22;;;;;;;;;24.67;18.67;;;;;;;;5120208;27;45539;-80
2021/12/19 03:04:58;;;;;;;;;23.75;18.00;;;;;;;;5102354;27;46156;-81
2021/12/19 03:07:25;;;;;;;;;19.00;18.50;;;;;;;;5120994;27;45698;-80
2021/12/19 03:10:11;;;;;;;;;17.50;13.50;;;;;;;;5121135;27;45264;-81
2021/12/19 03:20:23;;;;;;;;;27.00;23.00;;;;;;;;5121126;27;45405;-81
2021/12/19 03:22:49;;;;;;;;;18.00;17.50;;;;;;;;5120386;27;45373;-81
2021/12/19 03:25:14;;;;;;;;;27.33;24.00;;;;;;;;5120779;27;45494;-81
2021/12/19 03:27:39;;;;;;;;;25.67;22.67;;;;;;;;5102369;27;45705;-81
2021/12/19 03:30:05;;;;;;;;;23.33;18.00;;;;;;;;5102080;27;45407;-80
2021/12/19 03:32:30;;;;;;;;;23.50;20.75;;;;;;;;5102263;27;45630;-81
2021/12/19 03:34:55;;;;;;;;;22.33;19.67;;;;;;;;5120647;27;45552;-81
2021/12/19 03:37:21;;;;;;;;;23.00;20.00;;;;;;;;5119971;27;45567;-81
2021/12/19 03:39:57;;;;;;;;;24.00;23.00;;;;;;;;5120510;27;45334;-81
2021/12/19 03:42:23;;;;;;;;;20.75;17.00;;;;;;;;5120568;27;45350;-81
2021/12/19 03:44:48;;;;;;;;;17.50;14.50;;;;;;;;5120813;27;45573;-81
2021/12/19 03:47:13;;;;;;;;;20.00;18.67;;;;;;;;5120443;27;45562;-81
2021/12/19 03:49:38;;;;;;;;;20.00;18.67;;;;;;;;5102107;27;45369;-83
2021/12/19 03:52:04;;;;;;;;;24.00;20.33;;;;;;;;5101396;27;45472;-81
2021/12/19 03:54:29;;;;;;;;;22.67;17.67;;;;;;;;5120252;27;46031;-82
2021/12/19 03:56:54;;;;;;;;;23.00;19.00;;;;;;;;5120818;27;45502;-81
2021/12/19 03:59:19;;;;;;;;;19.00;18.67;;;;;;;;5101946;27;45482;-81
2021/12/19 04:01:49;;;;;;;;;27.00;21.67;;;;;;;;5101988;27;45357;-80
2021/12/19 04:04:15;;;;;;;;;24.00;20.00;;;;;;;;5101713;27;48180;-81
2021/12/19 04:06:40;;;;;;;;;22.25;19.75;;;;;;;;5120252;27;45456;-81
2021/12/19 04:09:05;;;;;;;;;19.67;17.33;;;;;;;;5101577;27;45646;-81
2021/12/19 04:11:31;;;;;;;;;22.33;21.00;;;;;;;;5120451;27;44724;-81
2021/12/19 04:13:56;;;;;;;;;18.50;18.00;;;;;;;;5097038;27;47727;-80
2021/12/19 04:16:21;;;;;;;;;25.00;18.67;;;;;;;;5098185;27;45385;-81
2021/12/19 04:18:46;;;;;;;;;26.67;21.67;;;;;;;;5117390;27;45674;-85
2021/12/19 04:21:12;;;;;;;;;27.50;23.00;;;;;;;;5117212;27;45364;-85
2021/12/19 04:23:37;;;;;;;;;18.00;16.33;;;;;;;;5098024;27;46410;-85
2021/12/19 04:26:02;;;;;;;;;23.00;21.00;;;;;;;;5117029;27;45424;-84
2021/12/19 04:28:27;;;;;;;;;22.75;20.00;;;;;;;;5116958;27;45542;-84
2021/12/19 04:30:53;;;;;;;;;18.00;17.67;;;;;;;;5117150;27;45539;-84
2021/12/19 04:33:18;;;;;;;;;30.67;23.00;;;;;;;;5097727;27;47152;-84
2021/12/19 04:35:45;;;;;;;;;27.33;21.67;;;;;;;;5098544;27;45743;-85
2021/12/19 04:56:45;;;;;;;;;22.67;19.33;;;;;;;;5116384;27;45442;-84
2021/12/19 05:14:03;;;;;;;;;17.33;16.00;;;;;;;;5115312;27;45346;-81
2021/12/19 05:15:06;;;;;;;;;16.50;14.50;;;;;;;;5115681;27;45422;-81
2021/12/19 05:17:32;;;;;;;;;16.25;14.00;;;;;;;;5097004;27;45385;-81
2021/12/19 05:22:36;;;;;;;;;23.25;17.75;;;;;;;;5115466;27;45543;-81
2021/12/19 05:25:13;;;;;;;;;17.00;16.00;;;;;;;;5115574;27;45561;-81
2021/12/19 05:27:38;;;;;;;;;15.50;12.75;;;;;;;;5097142;27;46084;-81
2021/12/19 05:30:03;;;;;;;;;18.33;13.33;;;;;;;;5115888;27;45362;-81
2021/12/19 05:32:28;;;;;;;;;21.00;16.25;;;;;;;;5114825;27;45356;-81
2021/12/19 05:34:54;;;;;;;;;15.33;13.00;;;;;;;;5097134;27;47285;-80
2021/12/19 05:45:40;;;;;;;;;18.00;15.00;;;;;;;;5115163;27;45895;-81
2021/12/19 05:48:06;;;;;;;;;16.00;16.00;;;;;;;;5096746;27;45719;-82
2021/12/19 05:50:31;;;;;;;;;14.00;11.33;;;;;;;;5096883;27;45329;-83
2021/12/19 05:52:56;;;;;;;;;13.67;12.67;;;;;;;;5114776;27;45540;-82
2021/12/19 05:55:21;;;;;;;;;15.33;13.00;;;;;;;;5115558;27;45843;-81
2021/12/19 05:57:46;;;;;;;;;12.00;11.33;;;;;;;;5096589;27;45382;-81
2021/12/19 06:00:14;;;;;;;;;12.00;12.00;;;;;;;;5115873;27;45548;-82
2021/12/19 06:02:40;;;;;;;;;17.25;16.50;;;;;;;;5095848;27;45680;-81
2021/12/19 06:05:07;;;;;;;;;16.25;13.00;;;;;;;;5115396;27;45653;-81
2021/12/19 06:07:32;;;;;;;;;17.75;13.25;;;;;;;;5096061;27;45737;-81
2021/12/19 06:09:59;;;;;;;;;15.00;13.33;;;;;;;;5115131;27;45418;-81
2021/12/19 06:12:24;;;;;;;;;13.25;12.75;;;;;;;;5114941;27;45259;-81
2021/12/19 06:14:49;;;;;;;;;13.67;12.67;;;;;;;;5096433;27;48158;-81
2021/12/19 06:17:14;;;;;;;;;16.00;13.00;;;;;;;;5114795;27;45440;-81
2021/12/19 06:19:40;;;;;;;;;13.67;12.33;;;;;;;;5096484;27;45468;-80
2021/12/19 06:22:05;;;;;;;;;15.33;14.67;;;;;;;;5114337;27;45209;-81
2021/12/19 06:24:31;;;;;;;;;13.00;12.50;;;;;;;;5096069;27;48101;-81
2021/12/19 06:26:58;;;;;;;;;18.75;17.00;;;;;;;;5096116;27;45888;-81
2021/12/19 06:29:23;;;;;;;;;15.75;13.00;;;;;;;;5096348;27;45549;-81
2021/12/19 06:31:49;;;;;;;;;12.33;11.00;;;;;;;;5114614;27;45501;-81
2021/12/19 06:34:14;;;;;;;;;17.67;13.67;;;;;;;;5096155;27;46342;-81
2021/12/19 06:36:41;;;;;;;;;18.33;13.33;;;;;;;;5113260;27;45430;-81
2021/12/19 06:39:06;;;;;;;;;17.00;13.25;;;;;;;;5114663;27;45370;-82
2021/12/19 06:41:31;;;;;;;;;13.00;12.00;;;;;;;;5096528;27;45345;-83
2021/12/19 06:43:56;;;;;;;;;16.00;13.00;;;;;;;;5096094;27;47497;-84
2021/12/19 06:46:21;;;;;;;;;16.00;15.33;;;;;;;;5096420;27;45920;-85
2021/12/19 06:48:47;;;;;;;;;14.00;14.00;;;;;;;;5114907;27;45303;-84
2021/12/19 06:51:12;;;;;;;;;16.67;13.33;;;;;;;;5096380;27;45412;-84
2021/12/19 06:53:37;;;;;;;;;21.33;17.33;;;;;;;;5113920;27;46954;-84
2021/12/19 06:56:02;;;;;;;;;17.00;16.00;;;;;;;;5096179;27;45809;-84
2021/12/19 06:58:28;;;;;;;;;14.00;12.00;;;;;;;;5096086;27;45443;-85
2021/12/19 07:00:53;;;;;;;;;20.00;16.00;;;;;;;;5096041;27;45382;-84
2021/12/19 07:03:23;;;;;;;;;17.33;14.00;;;;;;;;5095716;27;47243;-84
2021/12/19 07:05:48;;;;;;;;;17.00;14.50;;;;;;;;5096047;27;45521;-85
2021/12/19 07:08:13;;;;;;;;;13.50;12.50;;;;;;;;5114553;27;45426;-84
2021/12/19 07:10:39;;;;;;;;;18.00;16.00;;;;;;;;5095833;27;45373;-85
2021/12/19 07:13:04;;;;;;;;;16.67;12.67;;;;;;;;5095266;27;47277;-80
2021/12/19 07:15:29;;;;;;;;;12.00;9.25;;;;;;;;5113652;27;45313;-81
2021/12/19 07:17:57;;;;;;;;;16.50;15.25;;;;;;;;5114259;27;45302;-81
2021/12/19 07:20:22;;;;;;;;;14.00;12.50;;;;;;;;5113972;27;45303;-81
2021/12/19 07:22:47;;;;;;;;;14.33;12.00;;;;;;;;5113480;27;45465;-81
2021/12/19 07:25:12;;;;;;;;;12.00;12.00;;;;;;;;5095629;27;45788;-81
2021/12/19 07:27:38;;;;;;;;;11.00;9.00;;;;;;;;5095669;27;45691;-81
2021/12/19 07:30:04;;;;;;;;;16.33;15.33;;;;;;;;5113672;27;45357;-80
2021/12/19 07:32:30;;;;;;;;;11.50;11.25;;;;;;;;5113085;27;46911;-81
2021/12/19 07:34:56;;;;;;;;;11.50;10.00;;;;;;;;5113899;27;45482;-80
2021/12/19 07:37:21;;;;;;;;;13.00;10.67;;;;;;;;5095456;27;45446;-80
2021/12/19 07:39:57;;;;;;;;;13.00;12.00;;;;;;;;5114141;27;45417;-80
2021/12/19 07:42:22;;;;;;;;;13.00;12.00;;;;;;;;5095453;27;48099;-81
2021/12/19 07:44:48;;;;;;;;;16.00;14.00;;;;;;;;5113280;27;45540;-81
2021/12/19 07:47:14;;;;;;;;;13.67;12.67;;;;;;;;5113803;27;45439;-80
2021/12/19 07:49:39;;;;;;;;;16.25;13.00;;;;;;;;5117112;27;45430;-81
2021/12/19 07:52:04;;;;;;;;;16.33;14.67;;;;;;;;5116508;27;46058;-81
2021/12/19 07:54:29;;;;;;;;;15.67;13.33;;;;;;;;5098837;27;45597;-81
2021/12/19 07:56:55;;;;;;;;;13.00;13.00;;;;;;;;5116879;27;45454;-80
2021/12/19 07:59:20;;;;;;;;;14.67;13.67;;;;;;;;5116777;27;45425;-81
2021/12/19 08:01:45;;;;;;;;;11.33;11.00;;;;;;;;5116720;27;46272;-80
2021/12/19 08:04:10;;;;;;;;;14.33;12.67;;;;;;;;5098427;27;45514;-81
2021/12/19 08:06:36;;;;;;;;;13.75;12.25;;;;;;;;5098388;27;45502;-81
2021/12/19 08:09:08;;;;;;;;;13.25;13.00;;;;;;;;5117033;27;45559;-80
2021/12/19 08:11:42;;;;;;;;;12.25;11.50;;;;;;;;5116812;27;45520;-82
2021/12/19 08:14:14;;;;;;;;;12.00;12.00;;;;;;;;5116937;27;45487;-81
2021/12/19 08:16:40;;;;;;;;;16.50;14.00;;;;;;;;5098472;27;45481;-81
2021/12/19 08:19:06;;;;;;;;;16.25;15.50;;;;;;;;5098132;27;45315;-81
2021/12/19 08:21:31;;;;;;;;;18.00;12.33;;;;;;;;5116167;27;45691;-81
2021/12/19 08:24:00;;;;;;;;;15.67;15.67;;;;;;;;5116442;27;45349;-81
2021/12/19 08:26:25;;;;;;;;;15.75;9.00;;;;;;;;5098023;27;45409;-81
2021/12/19 08:28:50;;;;;;;;;13.00;12.25;;;;;;;;5116497;27;45674;-80
2021/12/19 08:31:16;;;;;;;;;16.50;14.25;;;;;;;;5116620;27;46346;-80
2021/12/19 08:33:41;;;;;;;;;13.00;12.67;;;;;;;;5116501;27;45349;-80
2021/12/19 08:36:07;;;;;;;;;15.33;12.33;;;;;;;;5116397;27;45383;-81
2021/12/19 08:38:33;;;;;;;;;13.00;12.00;;;;;;;;5097682;27;45439;-81
2021/12/19 08:40:59;;;;;;;;;15.00;13.00;;;;;;;;5097926;27;46513;-85
2021/12/19 08:43:24;;;;;;;;;13.75;12.75;;;;;;;;5097796;27;45702;-84
2021/12/19 08:45:49;;;;;;;;;12.75;11.50;;;;;;;;5098053;27;45403;-81
2021/12/19 08:48:18;;;;;;;;;13.25;11.25;;;;;;;;5097778;27;45579;-85
2021/12/19 08:50:43;;;;;;;;;16.25;12.25;;;;;;;;5116189;27;45610;-81
2021/12/19 08:53:08;;;;;;;;;11.67;11.00;;;;;;;;5115486;27;45500;-82
2021/12/19 08:55:34;;;;;;;;;15.75;15.75;;;;;;;;5116524;27;45552;-84
2021/12/19 08:58:00;;;;;;;;;12.25;11.75;;;;;;;;5097707;27;45533;-81
2021/12/19 09:00:25;;;;;;;;;13.67;12.33;;;;;;;;5115458;27;45465;-81
2021/12/19 09:02:53;;;;;;;;;16.33;14.00;;;;;;;;5116259;27;45407;-85
2021/12/19 09:05:19;;;;;;;;;12.25;11.25;;;;;;;;5116667;27;45326;-85
2021/12/19 09:07:44;;;;;;;;;18.00;15.50;;;;;;;;5115837;27;45333;-83
2021/12/19 09:10:10;;;;;;;;;15.75;13.75;;;;;;;;5097591;27;48335;-85
2021/12/19 09:12:36;;;;;;;;;15.25;13.50;;;;;;;;5097393;27;45887;-82
2021/12/19 09:15:01;;;;;;;;;13.50;13.00;;;;;;;;5097761;27;45535;-85
2021/12/19 09:17:26;;;;;;;;;14.00;12.00;;;;;;;;5097492;27;45694;-84
2021/12/19 09:19:51;;;;;;;;;12.67;11.67;;;;;;;;5115967;27;46109;-84
2021/12/19 09:22:17;;;;;;;;;16.00;13.33;;;;;;;;5115398;27;45379;-81
2021/12/19 09:24:42;;;;;;;;;12.25;12.00;;;;;;;;5097109;27;45402;-82
2021/12/19 09:27:08;;;;;;;;;16.00;13.50;;;;;;;;5097435;27;45473;-82
2021/12/19 09:29:34;;;;;;;;;16.00;15.00;;;;;;;;5115512;27;46507;-81
2021/12/19 09:31:59;;;;;;;;;26.00;22.00;;;;;;;;5096859;27;46209;-80
2021/12/19 09:34:26;;;;;;;;;119.67;107.00;;;;;;;;5096930;27;45387;-81
2021/12/19 09:36:51;;;;;;;;;18.75;17.25;;;;;;;;5096836;27;45757;-80
2021/12/19 09:39:19;;;;;;;;;33.67;29.67;;;;;;;;5096422;27;47292;-81
2021/12/19 09:41:46;;;;;;;;;25.75;23.75;;;;;;;;5096811;27;45783;-80
2021/12/19 09:44:14;;;;;;;;;29.00;28.50;;;;;;;;5115310;27;45307;-81
2021/12/19 09:46:41;;;;;;;;;16.00;13.50;;;;;;;;5115389;27;45414;-80
2021/12/19 09:49:07;;;;;;;;;73.00;59.00;;;;;;;;5096635;27;48035;-81
2021/12/19 09:51:33;;;;;;;;;31.75;26.75;;;;;;;;5114538;27;45372;-82
2021/12/19 09:53:58;;;;;;;;;21.00;19.00;;;;;;;;5096807;27;45386;-80
2021/12/19 09:56:23;;;;;;;;;27.00;24.67;;;;;;;;5115231;27;45344;-80
2021/12/19 09:58:49;;;;;;;;;22.00;19.33;;;;;;;;5115002;27;45444;-81
2021/12/19 10:01:14;;;;;;;;;69.50;55.25;;;;;;;;5096607;27;45318;-83
2021/12/19 10:03:39;;;;;;;;;18.00;17.33;;;;;;;;5114967;27;45258;-81
2021/12/19 10:06:21;;;;;;;;;21.75;16.75;;;;;;;;5096139;27;45401;-80
2021/12/19 10:08:49;;;;;;;;;23.00;21.00;;;;;;;;5115036;27;45563;-84
2021/12/19 10:11:31;;;;;;;;;24.25;19.25;;;;;;;;5095462;27;45387;-84
2021/12/19 10:13:57;;;;;;;;;22.75;18.50;;;;;;;;5115021;27;45489;-81
2021/12/19 10:16:30;;;;;;;;;60.25;46.75;;;;;;;;5096515;27;45471;-82
2021/12/19 10:18:57;;;;;;;;;18.00;14.75;;;;;;;;5114453;27;46073;-80
2021/12/19 10:21:23;;;;;;;;;17.00;15.50;;;;;;;;5095737;27;45714;-80
2021/12/19 10:23:48;;;;;;;;;22.75;22.50;;;;;;;;5096343;27;45625;-81
2021/12/19 10:26:13;;;;;;;;;22.33;18.67;;;;;;;;5114747;27;45509;-81
2021/12/19 10:28:49;;;;;;;;;24.00;22.00;;;;;;;;5114538;27;46840;-80
2021/12/19 10:31:14;;;;;;;;;17.25;16.25;;;;;;;;5091234;27;45815;-81
2021/12/19 10:33:39;;;;;;;;;23.33;20.67;;;;;;;;5096182;27;45456;-81
2021/12/19 10:36:05;;;;;;;;;25.67;22.33;;;;;;;;5114692;27;45254;-82
2021/12/19 10:38:33;;;;;;;;;28.25;25.75;;;;;;;;5114048;27;45639;-80
2021/12/19 10:41:00;;;;;;;;;23.75;22.25;;;;;;;;5114702;27;45484;-81
2021/12/19 10:43:31;;;;;;;;;21.25;19.75;;;;;;;;5114421;27;45439;-81
2021/12/19 10:45:58;;;;;;;;;20.75;20.75;;;;;;;;5096144;27;45340;-82
2021/12/19 10:48:30;;;;;;;;;17.75;16.00;;;;;;;;5114361;27;45538;-82
2021/12/19 10:51:07;;;;;;;;;22.25;19.25;;;;;;;;5114828;27;45279;-81
2021/12/19 10:53:36;;;;;;;;;44.50;36.25;;;;;;;;5113937;27;45287;-81
2021/12/19 10:56:22;;;;;;;;;41.25;37.25;;;;;;;;5091163;27;45493;-81
2021/12/19 10:58:50;;;;;;;;;54.25;44.75;;;;;;;;5095340;27;46229;-81
2021/12/19 11:01:20;;;;;;;;;57.00;47.75;;;;;;;;5114217;27;45370;-81
2021/12/19 11:03:58;;;;;;;;;76.00;60.50;;;;;;;;5095726;27;45368;-81
2021/12/19 11:06:23;;;;;;;;;34.25;27.50;;;;;;;;5095318;27;45521;-81
2021/12/19 11:08:50;;;;;;;;;78.67;63.33;;;;;;;;5114107;27;45432;-81
2021/12/19 11:11:32;;;;;;;;;66.25;53.75;;;;;;;;5114166;27;45390;-83
2021/12/19 11:13:58;;;;;;;;;39.50;35.75;;;;;;;;5095887;27;45504;-84
2021/12/19 11:16:23;;;;;;;;;28.75;26.50;;;;;;;;5095823;27;45489;-83
2021/12/19 11:18:48;;;;;;;;;46.00;39.67;;;;;;;;5114258;27;45540;-84
2021/12/19 11:21:14;;;;;;;;;44.00;40.67;;;;;;;;5114339;27;45417;-85
2021/12/19 11:23:39;;;;;;;;;39.75;34.25;;;;;;;;5117184;27;45473;-84
2021/12/19 11:26:05;;;;;;;;;29.33;25.33;;;;;;;;5118085;27;45373;-84
2021/12/19 11:28:30;;;;;;;;;32.75;31.50;;;;;;;;5099405;27;48450;-84
2021/12/19 11:30:56;;;;;;;;;69.00;55.50;;;;;;;;5099363;27;45590;-83
2021/12/19 11:33:21;;;;;;;;;25.67;24.33;;;;;;;;5099345;27;45563;-84
2021/12/19 11:35:47;;;;;;;;;19.67;17.67;;;;;;;;5117847;27;45422;-84
2021/12/19 11:38:17;;;;;;;;;43.75;39.50;;;;;;;;5098878;27;47139;-84
2021/12/19 11:40:43;;;;;;;;;30.25;27.25;;;;;;;;5117780;27;45900;-84
2021/12/19 11:43:09;;;;;;;;;22.25;20.75;;;;;;;;5099335;27;45508;-84
2021/12/19 11:48:18;;;;;;;;;28.25;26.00;;;;;;;;5117410;27;45990;-84
2021/12/19 11:50:46;;;;;;;;;23.00;20.25;;;;;;;;5099004;27;45838;-84
2021/12/19 11:53:11;;;;;;;;;23.50;21.50;;;;;;;;5117036;27;45483;-84
2021/12/19 11:55:41;;;;;;;;;21.00;19.00;;;;;;;;5098817;27;45360;-84
2021/12/19 11:58:11;;;;;;;;;28.75;25.00;;;;;;;;5093962;27;47347;-82
2021/12/19 12:00:50;;;;;;;;;27.00;24.75;;;;;;;;5098805;27;45863;-85
2021/12/19 12:03:15;;;;;;;;;43.50;35.25;;;;;;;;5117573;27;45368;-84
2021/12/19 12:05:45;;;;;;;;;27.00;24.67;;;;;;;;5117323;27;45472;-84
2021/12/19 12:08:10;;;;;;;;;21.00;19.50;;;;;;;;5098201;27;48465;-84
2021/12/19 12:10:50;;;;;;;;;24.00;21.75;;;;;;;;5117685;27;45509;-84
2021/12/19 12:13:25;;;;;;;;;22.75;22.25;;;;;;;;5098740;27;45310;-84
2021/12/19 12:15:53;;;;;;;;;25.75;22.75;;;;;;;;5098629;27;45544;-84
2021/12/19 12:18:29;;;;;;;;;28.25;27.50;;;;;;;;5098641;27;47300;-84
2021/12/19 12:20:54;;;;;;;;;50.00;43.25;;;;;;;;5098192;27;45599;-83
2021/12/19 12:23:24;;;;;;;;;24.00;22.67;;;;;;;;5116382;27;45254;-83
2021/12/19 12:25:50;;;;;;;;;33.00;29.25;;;;;;;;5116851;27;45472;-84
2021/12/19 12:28:18;;;;;;;;;27.00;25.33;;;;;;;;5116785;27;45472;-84
2021/12/19 12:30:47;;;;;;;;;28.75;25.00;;;;;;;;5116819;27;45319;-84
2021/12/19 12:33:14;;;;;;;;;24.50;22.25;;;;;;;;5116221;27;45451;-84
2021/12/19 12:35:41;;;;;;;;;25.50;24.00;;;;;;;;5116674;27;45405;-84
2021/12/19 12:38:07;;;;;;;;;30.50;27.75;;;;;;;;5116275;27;45364;-84
2021/12/19 12:40:43;;;;;;;;;46.75;40.00;;;;;;;;5116720;27;45524;-84
2021/12/19 12:43:13;;;;;;;;;29.75;29.50;;;;;;;;5116543;27;45287;-84
2021/12/19 12:45:49;;;;;;;;;50.25;41.75;;;;;;;;5111813;27;45456;-84
2021/12/19 12:48:26;;;;;;;;;31.25;24.75;;;;;;;;5097795;27;47121;-84
2021/12/19 12:50:51;;;;;;;;;39.50;36.75;;;;;;;;5116269;27;45747;-83
2021/12/19 12:53:26;;;;;;;;;32.33;29.67;;;;;;;;5116181;27;45384;-84
2021/12/19 12:56:09;;;;;;;;;68.75;54.25;;;;;;;;5117028;27;45631;-84
2021/12/19 12:58:39;;;;;;;;;37.25;36.25;;;;;;;;5116205;27;46225;-83
2021/12/19 13:01:16;;;;;;;;;32.25;29.00;;;;;;;;5097653;27;45347;-84
2021/12/19 13:03:56;;;;;;;;;45.00;35.75;;;;;;;;5116390;27;45310;-83
2021/12/19 13:06:38;;;;;;;;;26.75;25.50;;;;;;;;5116105;27;45531;-85
2021/12/19 13:09:17;;;;;;;;;23.50;19.25;;;;;;;;5097600;27;47099;-82
2021/12/19 13:11:44;;;;;;;;;30.75;28.25;;;;;;;;5098034;27;45727;-85
2021/12/19 13:14:29;;;;;;;;;46.50;39.75;;;;;;;;5115955;27;45471;-84
2021/12/19 13:17:00;;;;;;;;;45.25;36.25;;;;;;;;5097187;27;45289;-83
2021/12/19 13:19:36;;;;;;;;;74.50;59.00;;;;;;;;5097460;27;47360;-86
2021/12/19 13:22:02;;;;;;;;;34.50;30.25;;;;;;;;5097226;27;45354;-83
2021/12/19 13:24:30;;;;;;;;;45.50;40.00;;;;;;;;5116045;27;45666;-85
2021/12/19 13:27:21;;;;;;;;;47.75;38.50;;;;;;;;5097517;27;45592;-84
2021/12/19 13:30:05;;;;;;;;;58.00;46.75;;;;;;;;5094794;27;47702;-86
2021/12/19 13:32:34;;;;;;;;;198.50;177.25;;;;;;;;5116302;27;45738;-86
2021/12/19 13:35:00;;;;;;;;;64.00;51.75;;;;;;;;5115752;27;45447;-84
2021/12/19 13:37:26;;;;;;;;;31.50;29.25;;;;;;;;5096911;27;45409;-84
2021/12/19 13:40:21;;;;;;;;;46.75;39.00;;;;;;;;5115432;27;45431;-84
2021/12/19 13:42:51;;;;;;;;;42.00;36.25;;;;;;;;5101366;27;45830;-82
2021/12/19 13:45:28;;;;;;;;;45.50;38.00;;;;;;;;5096785;27;45356;-82
2021/12/19 13:47:54;;;;;;;;;32.25;29.50;;;;;;;;5115249;27;45307;-82
2021/12/19 13:50:19;;;;;;;;;40.75;36.25;;;;;;;;5115390;27;45520;-86
2021/12/19 13:52:45;;;;;;;;;27.25;27.25;;;;;;;;5115041;27;45368;-84
2021/12/19 13:55:11;;;;;;;;;53.25;42.25;;;;;;;;5115720;27;45274;-84
2021/12/19 13:57:36;;;;;;;;;46.00;39.00;;;;;;;;5097062;27;45342;-84
2021/12/19 14:00:05;;;;;;;;;34.33;31.00;;;;;;;;5096861;27;46355;-86
2021/12/19 14:02:35;;;;;;;;;36.25;35.25;;;;;;;;5097048;27;46120;-84
2021/12/19 14:05:00;;;;;;;;;31.25;26.25;;;;;;;;5115970;27;45688;-84
2021/12/19 14:07:28;;;;;;;;;22.00;20.67;;;;;;;;5095988;27;45402;-86
2021/12/19 14:09:57;;;;;;;;;31.75;28.75;;;;;;;;5115363;27;45325;-85
2021/12/19 14:12:52;;;;;;;;;27.50;25.00;;;;;;;;5096475;27;45668;-85
2021/12/19 14:15:11;;;;;;;;;28.50;25.75;;;;;;;;5114673;27;45534;-85
2021/12/19 14:17:36;;;;;;;;;29.75;24.75;;;;;;;;5097034;27;45573;-85
2021/12/19 14:20:03;;;;;;;;;28.33;26.00;;;;;;;;5096347;27;47518;-86
2021/12/19 14:22:28;;;;;;;;;23.50;22.25;;;;;;;;5114698;27;45257;-85
2021/12/19 14:24:57;;;;;;;;;38.00;33.00;;;;;;;;5114643;27;45337;-85
2021/12/19 14:27:25;;;;;;;;;25.75;21.50;;;;;;;;5114755;27;45377;-86
2021/12/19 14:29:57;;;;;;;;;33.75;29.50;;;;;;;;5096358;27;47157;-86
2021/12/19 14:32:22;;;;;;;;;39.75;32.25;;;;;;;;5096173;27;45728;-86
2021/12/19 14:34:49;;;;;;;;;29.67;27.00;;;;;;;;5114923;27;45459;-85
2021/12/19 14:37:20;;;;;;;;;31.50;29.00;;;;;;;;5096157;27;45304;-86
2021/12/19 14:40:00;;;;;;;;;34.75;26.25;;;;;;;;5114834;27;45521;-86
2021/12/19 14:42:31;;;;;;;;;37.00;31.25;;;;;;;;5096067;27;46029;-85
2021/12/19 14:44:57;;;;;;;;;36.75;32.50;;;;;;;;5096130;27;45337;-87
2021/12/19 14:47:42;;;;;;;;;36.25;31.00;;;;;;;;5114677;27;45320;-86
2021/12/19 14:50:12;;;;;;;;;35.75;29.50;;;;;;;;5109646;27;45554;-86
2021/12/19 14:52:37;;;;;;;;;33.25;30.00;;;;;;;;5114341;27;45944;-87
2021/12/19 14:55:13;;;;;;;;;34.00;30.67;;;;;;;;5096106;27;45345;-86
2021/12/19 14:57:39;;;;;;;;;42.25;35.00;;;;;;;;5114134;27;45578;-85
2021/12/19 15:00:05;;;;;;;;;42.25;36.00;;;;;;;;5095873;27;47385;-86
2021/12/19 15:02:31;;;;;;;;;47.75;37.50;;;;;;;;5114485;27;45416;-85
2021/12/19 15:04:56;;;;;;;;;50.25;40.25;;;;;;;;5114688;27;45459;-86
2021/12/19 15:07:25;;;;;;;;;45.67;37.67;;;;;;;;5113976;27;45626;-86
2021/12/19 15:09:50;;;;;;;;;45.25;39.00;;;;;;;;5095931;27;47046;-85
2021/12/19 15:12:15;;;;;;;;;48.00;38.00;;;;;;;;5095748;27;45525;-85
2021/12/19 15:14:41;;;;;;;;;40.00;37.33;;;;;;;;5114529;27;45383;-86
2021/12/19 15:17:07;;;;;;;;;36.50;32.25;;;;;;;;5114383;27;45306;-85
2021/12/19 15:19:33;;;;;;;;;39.50;34.75;;;;;;;;5114266;27;46627;-86
2021/12/19 15:21:58;;;;;;;;;40.00;32.75;;;;;;;;5114095;27;45262;-85
2021/12/19 15:24:23;;;;;;;;;48.67;38.67;;;;;;;;5114137;27;45369;-85
2021/12/19 15:26:48;;;;;;;;;48.00;42.33;;;;;;;;5114167;27;46108;-86